Time;durP1;ratioP1;P1;durP2;ratioP2;P2;SDS_P1;SDS_P2;PMS_P1;PMS_P2;Temp;Humidity;BMP_temperature;BMP_pressure;BME280_temperature;BME280_humidity;BME280_pressure;Samples;Min_cycle;Max_cycle;Signal;HPM_P1;HPM_P2
2021/01/28 00:01:24;;;;;;;16.57;10.75;;;;;;;4.47;100.00;99280.08;1831004;78;21342;-87
2021/01/28 00:03:52;;;;;;;15.98;10.15;;;;;;;4.41;100.00;99280.05;1831032;78;21157;-86
2021/01/28 00:06:20;;;;;;;13.05;10.00;;;;;;;4.37;100.00;99273.45;1830921;78;21546;-86
2021/01/28 00:08:49;;;;;;;15.18;10.15;;;;;;;4.34;100.00;99277.55;1830653;77;21193;-86
2021/01/28 00:11:17;;;;;;;13.35;9.58;;;;;;;4.32;100.00;99272.95;1830811;78;21183;-86
2021/01/28 00:13:45;;;;;;;14.70;10.25;;;;;;;4.30;100.00;99264.98;1830658;77;22000;-86
2021/01/28 00:16:13;;;;;;;15.85;10.70;;;;;;;4.30;100.00;99261.12;1830563;77;21172;-86
2021/01/28 00:18:41;;;;;;;14.47;10.85;;;;;;;4.26;100.00;99256.17;1830565;77;21106;-86
2021/01/28 00:21:09;;;;;;;13.60;10.03;;;;;;;4.26;100.00;99257.45;1830678;77;21141;-86
2021/01/28 00:23:37;;;;;;;16.07;10.85;;;;;;;4.30;100.00;99258.06;1830667;78;21153;-86
2021/01/28 00:26:05;;;;;;;16.90;11.57;;;;;;;4.26;100.00;99256.17;1830662;78;21350;-86
2021/01/28 00:28:33;;;;;;;17.15;11.35;;;;;;;4.21;100.00;99242.80;1830698;78;21129;-86
2021/01/28 00:31:01;;;;;;;13.88;10.30;;;;;;;4.16;100.00;99238.45;1830737;78;21185;-86
2021/01/28 00:33:29;;;;;;;16.67;10.35;;;;;;;4.15;100.00;99229.06;1830533;78;21176;-86
2021/01/28 00:35:58;;;;;;;15.10;10.32;;;;;;;4.18;100.00;99222.39;1830627;77;21137;-86
2021/01/28 00:38:30;;;;;;;15.23;10.55;;;;;;;4.20;100.00;99222.30;1830595;77;21348;-86
2021/01/28 00:41:04;;;;;;;16.62;10.48;;;;;;;4.22;100.00;99212.23;1830633;77;21586;-86
2021/01/28 00:43:32;;;;;;;10.82;8.70;;;;;;;4.22;100.00;99206.25;1830564;78;21240;-86
2021/01/28 00:46:02;;;;;;;15.35;10.63;;;;;;;4.24;100.00;99192.79;1830585;77;21130;-86
2021/01/28 00:48:31;;;;;;;16.52;11.05;;;;;;;4.31;100.00;99190.61;1830754;77;21130;-86
2021/01/28 00:51:02;;;;;;;14.13;9.88;;;;;;;4.30;100.00;99191.06;1830696;78;21345;-86
2021/01/28 00:53:31;;;;;;;14.15;10.50;;;;;;;4.30;100.00;99188.96;1830767;77;29201;-86
2021/01/28 00:56:00;;;;;;;16.67;11.18;;;;;;;4.26;100.00;99182.72;1830686;78;21152;-86
2021/01/28 00:58:54;;;;;;;16.57;11.08;;;;;;;4.31;100.00;99181.59;1872624;75;22360;-85
2021/01/28 01:01:24;;;;;;;15.15;11.30;;;;;;;4.14;100.00;99187.93;1836249;78;21022;-86
2021/01/28 01:03:53;;;;;;;17.82;11.73;;;;;;;4.14;100.00;99187.93;1840570;77;21344;-86
2021/01/28 01:06:21;;;;;;;17.80;12.10;;;;;;;4.13;100.00;99192.75;1840547;77;21066;-86
2021/01/28 01:08:49;;;;;;;14.25;10.43;;;;;;;4.07;100.00;99188.84;1840448;77;21220;-86
2021/01/28 01:11:19;;;;;;;20.32;12.23;;;;;;;4.11;100.00;99190.27;1835936;78;21145;-86
2021/01/28 01:13:48;;;;;;;16.70;12.40;;;;;;;4.10;100.00;99191.19;1836165;78;21133;-87
2021/01/28 01:16:19;;;;;;;17.45;12.28;;;;;;;4.08;100.00;99196.46;1836032;77;21467;-87
2021/01/28 01:18:49;;;;;;;17.55;12.00;;;;;;;4.04;100.00;99192.47;1840343;77;21161;-87
2021/01/28 01:21:18;;;;;;;18.30;13.25;;;;;;;4.06;100.00;99184.63;1840549;77;21145;-87
2021/01/28 01:23:47;;;;;;;21.50;12.43;;;;;;;4.12;100.00;99180.31;1836043;78;21129;-87
2021/01/28 01:26:17;;;;;;;18.85;12.33;;;;;;;4.14;100.00;99173.76;1836056;77;21124;-87
2021/01/28 01:28:47;;;;;;;18.17;12.90;;;;;;;4.09;100.00;99173.64;1840557;78;21533;-87
2021/01/28 01:31:17;;;;;;;19.45;13.48;;;;;;;4.04;100.00;99173.59;1835952;77;21098;-87
2021/01/28 01:33:45;;;;;;;21.40;13.95;;;;;;;4.03;100.00;99176.66;1840525;77;21473;-87
2021/01/28 01:36:14;;;;;;;19.67;13.05;;;;;;;4.03;100.00;99157.78;1840492;78;21062;-87
2021/01/28 01:38:43;;;;;;;19.85;13.60;;;;;;;4.01;100.00;99156.61;1836281;77;21121;-87
2021/01/28 01:41:12;;;;;;;20.52;13.93;;;;;;;3.97;100.00;99150.02;1840626;78;21346;-87
2021/01/28 01:43:42;;;;;;;20.17;13.95;;;;;;;3.93;100.00;99138.30;1836164;78;21180;-87
2021/01/28 01:46:15;;;;;;;24.35;16.30;;;;;;;3.87;100.00;99129.25;1840659;77;21129;-87
2021/01/28 01:48:51;;;;;;;25.10;15.23;;;;;;;3.84;100.00;99114.04;1810924;78;21045;-87
2021/01/28 01:51:40;;;;;;;21.82;13.88;;;;;;;3.78;100.00;99126.88;1836351;78;21137;-87
2021/01/28 01:54:25;;;;;;;23.35;14.80;;;;;;;3.78;100.00;99169.36;1836272;77;22371;-87
2021/01/28 01:57:03;;;;;;;20.92;14.20;;;;;;;3.76;100.00;99170.41;1834686;77;21233;-87
2021/01/28 01:59:40;;;;;;;24.10;16.20;;;;;;;3.68;100.00;99168.35;1828608;77;21045;-87
2021/01/28 02:02:31;;;;;;;20.32;14.35;;;;;;;3.65;100.00;99163.41;1832454;77;21104;-86
2021/01/28 02:05:26;;;;;;;21.82;15.15;;;;;;;3.63;100.00;99164.00;1832725;77;21108;-87
2021/01/28 02:08:49;;;;;;;18.27;12.93;;;;;;;3.64;100.00;99165.64;1829178;78;21359;-87
2021/01/28 02:11:34;;;;;;;18.92;13.28;;;;;;;3.60;100.00;99168.90;1830448;77;21081;-88
2021/01/28 02:14:27;;;;;;;22.58;15.63;;;;;;;3.60;100.00;99157.31;1831566;77;21093;-87
2021/01/28 02:17:06;;;;;;;24.55;14.07;;;;;;;3.66;100.00;99159.91;1829687;78;21561;-87
2021/01/28 02:30:31;;;;;;;22.67;14.20;;;;;;;3.88;100.00;99133.48;1852684;77;22085;-87
2021/01/28 02:33:00;;;;;;;23.75;15.13;;;;;;;3.85;100.00;99131.59;1813331;78;21159;-87
2021/01/28 02:35:50;;;;;;;21.52;14.83;;;;;;;3.83;100.00;99129.58;1843055;77;22157;-87
2021/01/28 02:38:23;;;;;;;15.78;11.85;;;;;;;3.80;100.00;99147.36;1825087;77;21033;-87
2021/01/28 02:40:56;;;;;;;21.50;14.68;;;;;;;3.84;100.00;99150.54;1842678;77;21103;-87
2021/01/28 02:43:38;;;;;;;20.92;12.90;;;;;;;3.87;100.00;99158.06;1713114;78;21183;-87
2021/01/28 02:46:22;;;;;;;22.20;14.28;;;;;;;3.91;100.00;99160.77;1786866;80;21218;-86
2021/01/28 02:49:03;;;;;;;22.20;15.20;;;;;;;3.90;100.00;99153.96;1786713;80;21273;-87
2021/01/28 02:51:34;;;;;;;26.10;16.52;;;;;;;3.85;100.00;99140.13;1786557;80;21162;-87
2021/01/28 02:54:05;;;;;;;23.12;15.98;;;;;;;3.82;100.00;99134.37;1790352;80;21595;-87
2021/01/28 02:56:35;;;;;;;24.98;16.12;;;;;;;3.78;100.00;99142.33;1790197;80;21543;-87
2021/01/28 02:59:34;;;;;;;28.55;16.37;;;;;;;3.78;100.00;99137.63;1787037;80;21107;-87
2021/01/28 03:02:15;;;;;;;25.70;15.78;;;;;;;3.78;100.00;99140.20;1767984;80;21378;-87
2021/01/28 03:04:45;;;;;;;28.70;17.67;;;;;;;3.73;100.00;99142.29;1790264;79;21195;-87
2021/01/28 03:07:21;;;;;;;23.62;15.63;;;;;;;3.63;100.00;99149.36;1787025;80;21189;-87
2021/01/28 03:09:57;;;;;;;24.92;15.85;;;;;;;3.59;100.00;99150.52;1790168;80;21852;-87
2021/01/28 03:12:26;;;;;;;23.20;16.20;;;;;;;3.60;100.00;99161.63;1786780;80;21107;-87
2021/01/28 03:14:57;;;;;;;26.93;17.17;;;;;;;3.58;100.00;99173.77;1789699;80;21563;-87
2021/01/28 03:17:29;;;;;;;26.33;17.77;;;;;;;3.55;100.00;99177.86;1790149;80;21589;-87
2021/01/28 03:20:00;;;;;;;28.92;18.85;;;;;;;3.48;100.00;99181.31;1778090;80;21504;-88
2021/01/28 03:22:30;;;;;;;25.10;17.98;;;;;;;3.38;100.00;99183.70;1786940;80;21095;-87
2021/01/28 03:25:00;;;;;;;27.25;16.82;;;;;;;3.36;100.00;99177.83;1786904;80;21107;-88
2021/01/28 03:27:28;;;;;;;30.52;18.73;;;;;;;3.37;100.00;99178.63;1790413;79;22129;-87
2021/01/28 03:29:58;;;;;;;22.17;15.78;;;;;;;3.42;100.00;99171.45;1788259;79;21123;-88
2021/01/28 03:32:27;;;;;;;24.85;16.87;;;;;;;3.43;100.00;99167.47;1754412;81;21103;-87
2021/01/28 03:35:27;;;;;;;28.92;18.60;;;;;;;3.44;100.00;99166.55;1787165;80;21114;-87
2021/01/28 03:37:57;;;;;;;29.72;18.40;;;;;;;3.45;100.00;99163.05;1752086;81;26719;-87
2021/01/28 03:40:29;;;;;;;31.48;18.98;;;;;;;3.45;100.00;99159.19;1786848;80;21594;-87
2021/01/28 03:43:00;;;;;;;28.32;17.57;;;;;;;3.44;100.00;99156.73;1751353;81;21280;-87
2021/01/28 03:45:29;;;;;;;28.12;18.70;;;;;;;3.41;100.00;99156.92;1787332;78;21153;-87
2021/01/28 03:47:59;;;;;;;25.88;17.82;;;;;;;3.42;100.00;99154.72;1788212;80;21595;-87
2021/01/28 03:50:42;;;;;;;27.98;18.62;;;;;;;3.39;100.00;99158.33;1775996;80;21210;-88
2021/01/28 03:53:13;;;;;;;28.55;18.82;;;;;;;3.41;100.00;99155.64;1742795;81;21391;-88
2021/01/28 03:55:58;;;;;;;30.68;18.98;;;;;;;3.41;100.00;99160.31;1665521;85;21209;-88
2021/01/28 03:59:02;;;;;;;30.10;18.82;;;;;;;3.42;100.00;99154.23;1836683;77;23684;-87
2021/01/28 04:01:34;;;;;;;33.23;20.00;;;;;;;3.33;100.00;99149.72;1809358;78;21179;-86
2021/01/28 04:04:04;;;;;;;30.43;19.42;;;;;;;3.27;100.00;99143.71;1787576;79;24163;-86
2021/01/28 04:06:52;;;;;;;34.40;19.80;;;;;;;3.22;100.00;99137.59;1731283;81;21256;-87
2021/01/28 04:09:22;;;;;;;29.80;20.08;;;;;;;3.16;100.00;99134.97;1727668;81;21558;-87
2021/01/28 04:12:11;;;;;;;31.87;21.70;;;;;;;3.14;100.00;99143.72;1830090;78;23016;-87
2021/01/28 04:14:47;;;;;;;36.08;23.22;;;;;;;3.07;100.00;99139.47;1678918;83;21170;-88
2021/01/28 04:17:18;;;;;;;32.75;22.32;;;;;;;3.03;100.00;99144.45;1742234;82;21172;-87
2021/01/28 04:19:48;;;;;;;32.35;22.20;;;;;;;2.96;100.00;99146.63;1796413;79;21240;-87
2021/01/28 04:22:16;;;;;;;29.02;19.20;;;;;;;2.91;100.00;99146.09;1807960;79;21481;-88
2021/01/28 04:24:45;;;;;;;28.77;19.12;;;;;;;2.87;100.00;99152.83;1805231;79;21148;-88
2021/01/28 04:27:14;;;;;;;22.73;16.05;;;;;;;2.84;100.00;99148.23;1808526;79;21523;-88
2021/01/28 04:29:56;;;;;;;27.80;17.98;;;;;;;2.83;100.00;99150.92;1805190;79;21186;-88
2021/01/28 04:32:29;;;;;;;30.52;19.87;;;;;;;2.86;100.00;99160.17;1805094;79;21133;-88
2021/01/28 04:35:07;;;;;;;29.57;18.37;;;;;;;2.90;100.00;99161.16;1804968;79;21459;-88
2021/01/28 04:37:36;;;;;;;26.82;17.57;;;;;;;2.94;100.00;99165.63;1808425;79;21200;-87
2021/01/28 04:40:33;;;;;;;25.60;17.85;;;;;;;2.97;100.00;99164.96;1804825;79;21220;-86
2021/01/28 04:43:24;;;;;;;28.12;18.70;;;;;;;3.04;100.00;99160.24;1808601;79;22268;-87
2021/01/28 04:46:01;;;;;;;30.43;19.98;;;;;;;3.06;100.00;99157.11;1801390;79;21082;-87
2021/01/28 04:48:33;;;;;;;31.77;19.90;;;;;;;3.02;100.00;99171.09;1790772;79;21151;-87
2021/01/28 04:51:20;;;;;;;29.65;18.42;;;;;;;2.98;100.00;99170.95;1773182;80;21174;-87
2021/01/28 04:54:18;;;;;;;29.27;19.92;;;;;;;3.01;100.00;99172.01;1769511;80;21139;-86
2021/01/28 04:56:47;;;;;;;27.20;17.48;;;;;;;3.09;100.00;99179.23;1773242;80;22088;-86
2021/01/28 04:59:30;;;;;;;29.15;18.95;;;;;;;3.16;100.00;99184.31;1769768;80;21561;-87
2021/01/28 05:02:00;;;;;;;26.52;17.70;;;;;;;3.18;100.00;99184.20;1772967;80;21139;-87
2021/01/28 05:05:06;;;;;;;28.83;18.95;;;;;;;3.22;100.00;99189.52;1888720;75;22719;-86
2021/01/28 05:07:52;;;;;;;32.85;18.57;;;;;;;3.18;100.00;99203.50;1745019;81;21156;-87
2021/01/28 05:10:46;;;;;;;27.22;19.15;;;;;;;3.14;100.00;99194.72;1838051;77;21475;-87
2021/01/28 05:13:37;;;;;;;28.38;18.82;;;;;;;3.11;100.00;99184.63;1854281;77;21124;-87
2021/01/28 05:16:33;;;;;;;31.55;20.68;;;;;;;3.09;100.00;99199.33;1783085;77;28774;-87
2021/01/28 05:19:41;;;;;;;27.83;19.70;;;;;;;3.08;100.00;99209.28;1856330;76;28393;-87
2021/01/28 05:22:44;;;;;;;26.27;19.52;;;;;;;3.02;100.00;99206.28;1839648;78;21112;-87
2021/01/28 05:25:31;;;;;;;32.48;20.95;;;;;;;3.03;100.00;99199.74;1837549;77;21407;-87
2021/01/28 05:28:33;;;;;;;27.32;18.48;;;;;;;3.02;100.00;99194.23;1820030;77;21153;-85
2021/01/28 05:31:30;;;;;;;29.85;19.75;;;;;;;3.00;100.00;99201.25;1840232;77;21165;-86
2021/01/28 05:34:09;;;;;;;26.23;18.90;;;;;;;2.97;100.00;99193.25;1772241;77;21177;-86
2021/01/28 05:37:02;;;;;;;31.93;20.40;;;;;;;2.96;100.00;99189.06;1836958;78;21144;-86
2021/01/28 05:39:40;;;;;;;32.30;19.10;;;;;;;2.96;100.00;99204.48;1835686;78;21617;-86
2021/01/28 05:42:29;;;;;;;31.82;20.62;;;;;;;2.94;100.00;99206.33;1835613;77;21148;-86
2021/01/28 05:44:59;;;;;;;31.68;20.72;;;;;;;2.92;100.00;99213.79;1833302;77;21546;-87
2021/01/28 05:47:33;;;;;;;29.95;18.15;;;;;;;2.90;100.00;99209.20;1835844;77;21498;-86
2021/01/28 05:50:31;;;;;;;34.35;20.90;;;;;;;2.92;100.00;99208.65;1835326;76;21153;-87
2021/01/28 05:53:17;;;;;;;31.93;19.82;;;;;;;2.93;100.00;99219.27;1819717;77;22146;-87
2021/01/28 05:55:48;;;;;;;29.30;19.67;;;;;;;2.91;100.00;99219.85;1802654;78;21189;-85
2021/01/28 05:58:43;;;;;;;34.60;21.07;;;;;;;2.91;100.00;99210.85;1802888;78;21097;-86
2021/01/28 06:01:50;;;;;;;36.48;19.48;;;;;;;2.90;100.00;99219.02;1813257;76;21187;-86
2021/01/28 06:04:54;;;;;;;29.75;18.52;;;;;;;2.94;100.00;99217.91;1871546;75;22391;-86
2021/01/28 06:07:51;;;;;;;37.10;19.90;;;;;;;2.90;100.00;99227.20;1825015;76;21089;-85
2021/01/28 06:10:49;;;;;;;32.20;20.70;;;;;;;2.87;100.00;99221.80;1826309;78;21502;-86
2021/01/28 06:13:46;;;;;;;32.85;19.27;;;;;;;2.87;100.00;99223.09;1832844;78;21197;-86
2021/01/28 06:16:24;;;;;;;31.07;19.95;;;;;;;2.85;100.00;99231.36;1833756;77;21102;-87
2021/01/28 06:19:27;;;;;;;33.33;20.27;;;;;;;2.84;100.00;99220.23;1836958;77;21564;-87
2021/01/28 06:22:01;;;;;;;32.03;18.65;;;;;;;2.84;100.00;99206.09;1728137;80;21163;-85
2021/01/28 06:25:08;;;;;;;36.05;19.40;;;;;;;2.83;100.00;99209.61;1781239;79;21366;-85
2021/01/28 06:27:56;;;;;;;35.33;20.70;;;;;;;2.90;100.00;99197.62;1777952;79;21539;-88
2021/01/28 06:30:34;;;;;;;32.70;19.60;;;;;;;3.02;100.00;99190.85;1777712;79;21154;-87
2021/01/28 06:33:43;;;;;;;36.03;20.17;;;;;;;3.07;100.00;99194.77;1774622;79;21189;-87
2021/01/28 06:37:12;;;;;;;33.65;19.35;;;;;;;3.12;100.00;99199.61;1781572;79;21142;-86
2021/01/28 06:40:14;;;;;;;31.40;21.65;;;;;;;3.23;100.00;99202.75;1787617;78;27813;-86
2021/01/28 06:43:01;;;;;;;33.30;20.80;;;;;;;3.21;100.00;99217.45;1724993;80;21116;-88
2021/01/28 06:46:04;;;;;;;31.12;19.42;;;;;;;3.30;100.00;99210.41;1841229;78;22938;-87
2021/01/28 06:48:44;;;;;;;32.88;19.52;;;;;;;3.24;100.00;99223.69;1808303;79;25524;-87
2021/01/28 06:51:33;;;;;;;32.03;19.07;;;;;;;3.24;100.00;99218.55;1812011;79;21417;-87
2021/01/28 06:54:29;;;;;;;38.23;19.50;;;;;;;3.25;100.00;99225.31;1812273;79;21377;-87
2021/01/28 06:57:35;;;;;;;26.65;17.85;;;;;;;3.29;100.00;99226.77;1794997;79;21151;-87
2021/01/28 07:00:14;;;;;;;32.45;20.30;;;;;;;3.33;100.00;99222.24;1811660;78;21214;-87
2021/01/28 07:03:21;;;;;;;33.73;20.62;;;;;;;3.35;100.00;99222.97;1787245;78;21154;-86
2021/01/28 07:06:15;;;;;;;37.70;20.08;;;;;;;3.34;100.00;99237.56;1810054;79;21369;-84
2021/01/28 07:08:56;;;;;;;;;;;;;;;3.30;100.00;99238.72;1819189;79;20953;-85
2021/01/28 07:11:43;;;;;;;44.00;19.25;;;;;;;3.29;100.00;99239.63;1816474;79;20400;-87
2021/01/28 07:14:19;;;;;;;41.25;19.55;;;;;;;3.29;100.00;99239.63;1811530;78;21454;-87
2021/01/28 07:17:27;;;;;;;34.40;19.40;;;;;;;3.28;100.00;99246.55;1810317;78;21167;-85
2021/01/28 07:20:04;;;;;;;38.25;20.62;;;;;;;3.29;100.00;99258.45;1812412;79;21523;-86
2021/01/28 07:22:41;;;;;;;36.10;19.75;;;;;;;3.29;100.00;99259.74;1804489;79;21139;-86
2021/01/28 07:25:34;;;;;;;34.55;20.45;;;;;;;3.34;100.00;99255.58;1841036;78;22335;-85
2021/01/28 07:28:14;;;;;;;39.60;20.48;;;;;;;3.30;100.00;99252.87;1803712;79;22223;-86
2021/01/28 07:30:48;;;;;;;37.98;20.25;;;;;;;3.31;100.00;99255.33;1815886;78;22213;-86
2021/01/28 07:33:30;;;;;;;35.10;20.02;;;;;;;3.34;100.00;99256.86;1816392;78;21163;-87
2021/01/28 07:36:29;;;;;;;37.75;20.55;;;;;;;3.39;100.00;99253.98;1853023;76;22073;-84
2021/01/28 07:39:38;;;;;;;37.10;21.67;;;;;;;3.37;100.00;99247.67;1840829;77;21450;-84
2021/01/28 07:43:03;;;;;;;36.10;20.05;;;;;;;3.46;100.00;99244.92;1841584;77;22727;-84
2021/01/28 07:45:45;;;;;;;36.75;20.77;;;;;;;3.44;100.00;99251.47;1793979;77;21198;-85
2021/01/28 07:48:24;;;;;;;;;;;;;;;3.46;100.00;99256.51;1827949;78;21164;-85
2021/01/28 07:51:33;;;;;;;35.85;20.50;;;;;;;3.51;100.00;99250.61;1830923;76;22295;-85
2021/01/28 07:54:04;;;;;;;40.10;20.25;;;;;;;3.48;100.00;99260.62;1793789;79;21148;-85
2021/01/28 07:56:45;;;;;;;35.98;19.50;;;;;;;3.52;100.00;99264.28;1786210;77;22283;-84
2021/01/28 07:59:49;;;;;;;32.80;19.15;;;;;;;3.55;100.00;99267.95;1790136;79;21183;-85
2021/01/28 08:02:36;;;;;;;40.55;20.27;;;;;;;3.58;100.00;99266.44;1794010;79;21131;-85
2021/01/28 08:05:20;;;;;;;34.78;19.67;;;;;;;3.62;100.00;99260.98;1808100;78;21108;-86
2021/01/28 08:11:26;;;;;;;33.10;18.87;;;;;;;3.74;100.00;99252.08;1840967;78;22311;-85
2021/01/28 08:13:56;;;;;;;35.70;20.15;;;;;;;3.73;100.00;99247.37;1816516;78;21024;-86
2021/01/28 08:16:24;;;;;;;36.90;20.37;;;;;;;3.76;100.00;99242.02;1816462;79;21969;-85
2021/01/28 08:19:15;;;;;;;36.15;20.10;;;;;;;3.79;100.00;99241.83;1816305;79;21151;-85
2021/01/28 08:21:43;;;;;;;30.17;18.07;;;;;;;3.82;100.00;99243.81;1792911;79;21162;-85
2021/01/28 08:24:35;;;;;;;38.98;20.25;;;;;;;3.86;100.00;99242.20;1784221;80;21179;-85
2021/01/28 08:27:30;;;;;;;32.03;18.90;;;;;;;3.91;100.00;99238.02;1786253;79;21123;-85
2021/01/28 08:30:18;;;;;;;30.68;18.48;;;;;;;3.97;100.00;99223.42;1764053;80;21218;-85
2021/01/28 08:32:53;;;;;;;32.13;19.15;;;;;;;4.10;100.00;99228.55;1784137;80;21257;-85
2021/01/28 08:35:38;;;;;;;35.58;19.82;;;;;;;4.25;100.00;99227.94;1797006;79;21163;-86
2021/01/28 08:38:26;;;;;;;33.55;19.20;;;;;;;4.38;100.00;99226.13;1816367;78;21151;-85
2021/01/28 08:41:08;;;;;;;30.12;19.45;;;;;;;4.50;100.00;99215.40;1813883;79;21454;-86
2021/01/28 08:43:36;;;;;;;32.25;19.48;;;;;;;4.57;100.00;99203.70;1804335;77;21397;-86
2021/01/28 08:46:20;;;;;;;29.85;18.87;;;;;;;4.66;100.00;99185.92;1809466;77;21174;-86
2021/01/28 08:48:49;;;;;;;30.85;17.87;;;;;;;4.79;100.00;99181.97;1802702;79;21132;-87
2021/01/28 08:51:26;;;;;;;28.65;18.73;;;;;;;4.92;100.00;99193.50;1802998;79;21059;-87
2021/01/28 08:54:06;;;;;;;31.75;17.57;;;;;;;5.10;100.00;99194.72;1814954;79;21092;-87
2021/01/28 08:56:38;;;;;;;28.60;17.80;;;;;;;5.10;100.00;99194.72;1734499;81;21558;-87
2021/01/28 08:59:15;;;;;;;27.30;16.10;;;;;;;5.20;100.00;99194.84;1743614;82;21200;-86
2021/01/28 09:01:51;;;;;;;27.17;14.68;;;;;;;5.26;100.00;99215.02;1732787;81;21155;-85
2021/01/28 09:04:30;;;;;;;24.82;15.75;;;;;;;5.31;100.00;99223.25;1753410;81;21171;-86
2021/01/28 09:06:59;;;;;;;26.52;16.02;;;;;;;5.31;100.00;99227.58;1740224;80;21143;-86
2021/01/28 09:09:32;;;;;;;25.70;15.95;;;;;;;5.29;100.00;99234.16;1741088;81;21191;-86
2021/01/28 09:12:28;;;;;;;25.45;16.95;;;;;;;5.27;100.00;99246.34;1769834;80;21172;-86
2021/01/28 09:15:23;;;;;;;25.30;15.63;;;;;;;5.23;100.00;99254.43;1759374;79;21199;-86
2021/01/28 09:17:52;;;;;;;28.15;16.57;;;;;;;5.14;100.00;99254.17;1734921;80;21566;-86
2021/01/28 09:20:32;;;;;;;27.83;17.23;;;;;;;5.08;100.00;99237.06;1788182;80;21141;-85
2021/01/28 09:23:13;;;;;;;25.65;15.15;;;;;;;5.07;100.00;99241.86;1761685;80;21250;-86
2021/01/28 09:25:44;;;;;;;29.85;17.15;;;;;;;5.07;100.00;99250.89;1757215;81;21197;-86
2021/01/28 09:28:18;;;;;;;26.73;15.83;;;;;;;5.07;100.00;99262.50;1757260;81;21180;-86
2021/01/28 09:30:49;;;;;;;25.62;15.03;;;;;;;5.04;100.00;99256.63;1762939;79;21138;-86
2021/01/28 09:33:40;;;;;;;26.12;14.68;;;;;;;5.02;100.00;99250.75;1774895;80;21121;-85
2021/01/28 09:36:25;;;;;;;25.82;14.93;;;;;;;5.02;100.00;99250.75;1788150;79;22143;-85
2021/01/28 09:39:15;;;;;;;26.80;13.28;;;;;;;4.98;100.00;99247.22;1777481;78;21155;-85
2021/01/28 09:41:50;;;;;;;29.10;12.82;;;;;;;4.94;100.00;99249.68;1774132;80;21181;-85
2021/01/28 09:44:44;;;;;;;17.85;10.85;;;;;;;4.94;100.00;99249.68;1757249;81;21165;-85
2021/01/28 09:47:20;;;;;;;22.17;11.08;;;;;;;4.96;100.00;99252.50;1757272;81;21148;-85
2021/01/28 09:49:54;;;;;;;19.07;10.58;;;;;;;4.96;100.00;99249.91;1757123;81;21202;-86
2021/01/28 09:52:31;;;;;;;17.37;10.15;;;;;;;4.98;100.00;99240.31;1763990;80;21146;-86
2021/01/28 09:55:06;;;;;;;16.37;10.00;;;;;;;5.09;100.00;99238.22;1788362;79;21134;-86
2021/01/28 09:57:34;;;;;;;13.85;8.60;;;;;;;5.13;100.00;99229.78;1788429;79;21193;-86
2021/01/28 10:00:07;;;;;;;15.95;8.83;;;;;;;5.13;100.00;99229.78;1788304;79;21268;-86
2021/01/28 10:02:53;;;;;;;18.70;9.05;;;;;;;5.19;100.00;99243.52;1788402;80;21208;-85
2021/01/28 10:05:29;;;;;;;15.25;8.28;;;;;;;5.30;100.00;99259.48;1757007;80;21182;-86
2021/01/28 10:07:58;;;;;;;14.10;7.55;;;;;;;5.30;100.00;99259.48;1788238;80;21086;-85
2021/01/28 10:10:32;;;;;;;15.68;8.03;;;;;;;5.33;100.00;99263.14;1777683;79;21632;-85
2021/01/28 10:13:05;;;;;;;12.43;7.80;;;;;;;5.36;100.00;99266.31;1768830;80;21150;-86
2021/01/28 10:15:34;;;;;;;13.75;8.05;;;;;;;5.36;100.00;99266.31;1768617;80;21356;-86
2021/01/28 10:18:03;;;;;;;13.08;6.70;;;;;;;5.38;100.00;99246.83;1765783;79;21162;-86
2021/01/28 10:20:36;;;;;;;13.95;6.30;;;;;;;5.40;100.00;99227.38;1745980;81;21172;-86
2021/01/28 10:23:11;;;;;;;13.32;5.65;;;;;;;5.40;100.00;99227.38;1734271;80;21566;-86
2021/01/28 10:25:39;;;;;;;14.58;5.87;;;;;;;5.45;100.00;99216.22;1747108;82;21057;-86
2021/01/28 10:28:07;;;;;;;7.25;5.17;;;;;;;5.49;100.00;99200.37;1730174;83;21207;-86
2021/01/28 10:30:35;;;;;;;11.03;5.60;;;;;;;5.57;100.00;99206.22;1746899;82;21140;-87
2021/01/28 10:33:05;;;;;;;7.08;4.60;;;;;;;5.68;100.00;99194.61;1801016;79;21092;-86
2021/01/28 10:35:34;;;;;;;6.17;4.03;;;;;;;5.87;100.00;99185.89;1730489;83;21164;-86
2021/01/28 10:38:05;;;;;;;6.65;3.77;;;;;;;5.96;100.00;99202.81;1733452;82;21198;-86
2021/01/28 10:40:34;;;;;;;8.65;4.30;;;;;;;5.99;100.00;99218.57;1708484;83;21227;-86
2021/01/28 10:43:06;;;;;;;9.83;4.42;;;;;;;6.00;100.00;99221.02;1738256;82;21223;-86
2021/01/28 10:45:40;;;;;;;9.08;4.10;;;;;;;5.96;100.00;99240.27;1706961;84;21168;-86
2021/01/28 10:48:10;;;;;;;7.37;4.35;;;;;;;5.90;100.00;99236.85;1738264;82;21168;-87
2021/01/28 10:50:38;;;;;;;5.87;4.12;;;;;;;5.83;100.00;99231.81;1738254;82;21076;-86
2021/01/28 10:53:08;;;;;;;5.53;3.50;;;;;;;5.73;100.00;99229.13;1738235;81;21355;-86
2021/01/28 10:55:37;;;;;;;7.00;4.00;;;;;;;5.67;100.00;99222.66;1738280;82;21227;-86
2021/01/28 10:58:09;;;;;;;6.20;3.37;;;;;;;5.61;100.00;99224.44;1738346;82;21156;-86
2021/01/28 11:00:39;;;;;;;10.60;4.08;;;;;;;5.55;100.00;99222.33;1738277;80;21206;-86
2021/01/28 11:03:07;;;;;;;6.10;4.00;;;;;;;5.52;100.00;99225.13;1738158;82;21168;-86
2021/01/28 11:05:37;;;;;;;6.42;4.03;;;;;;;5.47;100.00;99228.55;1738268;80;21275;-86
2021/01/28 11:08:06;;;;;;;7.58;3.92;;;;;;;5.43;100.00;99246.03;1752592;79;21217;-86
2021/01/28 11:10:34;;;;;;;6.55;3.92;;;;;;;5.38;100.00;99244.25;1776402;80;21724;-86
2021/01/28 11:13:03;;;;;;;5.35;4.25;;;;;;;5.39;100.00;99250.25;1788080;80;21072;-86
2021/01/28 11:15:36;;;;;;;6.00;3.90;;;;;;;5.40;100.00;99263.52;1778896;79;21556;-86
2021/01/28 11:18:11;;;;;;;6.03;3.98;;;;;;;5.41;100.00;99258.70;1774672;80;22133;-85
2021/01/28 11:20:40;;;;;;;4.33;3.45;;;;;;;5.39;100.00;99233.47;1747366;80;21139;-86
2021/01/28 11:23:09;;;;;;;3.87;3.37;;;;;;;5.36;100.00;99235.81;1747047;81;21127;-85
2021/01/28 11:25:36;;;;;;;5.80;4.00;;;;;;;5.32;100.00;99244.27;1752919;81;21587;-85
2021/01/28 11:28:05;;;;;;;4.90;3.72;;;;;;;5.27;100.00;99250.22;1754161;81;21131;-85
2021/01/28 11:30:35;;;;;;;5.40;3.70;;;;;;;5.24;100.00;99261.23;1741712;81;21594;-85
2021/01/28 11:33:06;;;;;;;6.30;4.15;;;;;;;5.21;100.00;99275.20;1737485;82;21247;-85
2021/01/28 11:35:37;;;;;;;6.78;3.92;;;;;;;5.20;100.00;99269.68;1783424;80;21727;-85
2021/01/28 11:38:08;;;;;;;5.97;4.30;;;;;;;5.18;100.00;99272.39;1783464;80;21243;-85
2021/01/28 11:40:37;;;;;;;5.50;4.20;;;;;;;5.19;100.00;99283.52;1784650;80;21142;-86
2021/01/28 11:43:06;;;;;;;5.95;3.95;;;;;;;5.16;100.00;99303.12;1779228;79;22118;-87
2021/01/28 11:46:04;;;;;;;6.50;3.80;;;;;;;5.18;100.00;99298.64;1769927;80;21159;-86
2021/01/28 11:48:35;;;;;;;5.20;3.85;;;;;;;5.18;100.00;99298.64;1763566;80;21154;-87
2021/01/28 11:51:12;;;;;;;3.72;3.40;;;;;;;5.18;100.00;99278.00;1727220;83;21190;-87
2021/01/28 11:57:43;;;;;;;4.03;3.60;;;;;;;5.16;100.00;99269.56;1786303;79;22299;-88
2021/01/28 12:00:41;;;;;;;5.10;3.75;;;;;;;5.14;100.00;99271.43;1757359;81;21168;-88
2021/01/28 12:03:16;;;;;;;5.37;4.17;;;;;;;5.08;100.00;99270.60;1757483;81;21570;-88
2021/01/28 12:09:15;;;;;;;4.53;3.80;;;;;;;5.04;100.00;99270.01;1757369;81;21223;-87
2021/01/28 12:11:43;;;;;;;6.78;4.33;;;;;;;5.01;100.00;99271.51;1742600;81;21546;-87
2021/01/28 12:14:39;;;;;;;5.90;4.10;;;;;;;5.01;100.00;99276.19;1746766;82;21160;-87
2021/01/28 12:17:36;;;;;;;5.85;4.40;;;;;;;5.13;100.00;99287.84;1773267;81;21144;-87
2021/01/28 12:20:32;;;;;;;6.03;4.35;;;;;;;5.13;100.00;99287.84;1773256;81;21131;-87
2021/01/28 12:27:25;;;;;;;8.38;5.10;;;;;;;5.18;100.00;99290.45;1773349;81;21567;-88
2021/01/28 12:30:28;;;;;;;4.90;3.98;;;;;;;5.12;100.00;99282.33;1773235;80;21674;-88
2021/01/28 12:41:26;;;;;;;5.53;4.58;;;;;;;4.82;100.00;99337.80;1797147;79;21580;-88
2021/01/28 12:48:17;;;;;;;7.03;4.30;;;;;;;4.64;100.00;99342.05;1773733;79;21120;-88
2021/01/28 12:58:40;;;;;;;5.95;4.40;;;;;;;4.52;100.00;99369.99;1742905;82;21135;-92
2021/01/28 13:05:24;;;;;;;5.03;3.80;;;;;;;4.40;100.00;99375.05;1743876;80;21575;-91
2021/01/28 13:11:56;;;;;;;5.47;3.83;;;;;;;4.36;100.00;99367.64;1773248;79;21147;-91